sensor_id;sensor_type;location;lat;lon;timestamp;pressure;altitude;pressure_sealevel;temperature;humidity
50349;BME280;36250;48.740;22.174;2023-09-07T00:02:25;101217.41;;;17.92;67.58
50349;BME280;36250;48.740;22.174;2023-09-07T00:04:50;101214.66;;;17.92;67.26
50349;BME280;36250;48.740;22.174;2023-09-07T00:07:15;101216.88;;;17.85;67.68
50349;BME280;36250;48.740;22.174;2023-09-07T00:09:40;101211.34;;;17.80;67.59
50349;BME280;36250;48.740;22.174;2023-09-07T00:12:06;101216.56;;;17.76;67.61
50349;BME280;36250;48.740;22.174;2023-09-07T00:14:31;101218.47;;;17.70;67.88
50349;BME280;36250;48.740;22.174;2023-09-07T00:16:56;101212.94;;;17.65;68.38
50349;BME280;36250;48.740;22.174;2023-09-07T00:19:22;101219.25;;;17.56;68.60
50349;BME280;36250;48.740;22.174;2023-09-07T00:21:47;101222.28;;;17.54;68.81
50349;BME280;36250;48.740;22.174;2023-09-07T00:24:12;101216.78;;;17.54;68.70
50349;BME280;36250;48.740;22.174;2023-09-07T00:26:37;101219.00;;;17.52;68.74
50349;BME280;36250;48.740;22.174;2023-09-07T00:29:03;101220.31;;;17.45;68.90
50349;BME280;36250;48.740;22.174;2023-09-07T00:31:28;101218.41;;;17.45;68.82
50349;BME280;36250;48.740;22.174;2023-09-07T00:33:53;101214.81;;;17.45;69.02
50349;BME280;36250;48.740;22.174;2023-09-07T00:36:18;101221.69;;;17.47;68.99
50349;BME280;36250;48.740;22.174;2023-09-07T00:38:43;101217.25;;;17.41;69.09
50349;BME280;36250;48.740;22.174;2023-09-07T00:41:09;101215.59;;;17.35;69.10
50349;BME280;36250;48.740;22.174;2023-09-07T00:43:34;101220.56;;;17.33;69.25
50349;BME280;36250;48.740;22.174;2023-09-07T00:45:59;101214.75;;;17.30;69.44
50349;BME280;36250;48.740;22.174;2023-09-07T00:48:24;101217.47;;;17.25;69.58
50349;BME280;36250;48.740;22.174;2023-09-07T00:50:50;101210.88;;;17.21;69.53
50349;BME280;36250;48.740;22.174;2023-09-07T00:53:15;101213.88;;;17.19;69.73
50349;BME280;36250;48.740;22.174;2023-09-07T00:55:41;101220.47;;;17.13;69.98
50349;BME280;36250;48.740;22.174;2023-09-07T00:58:07;101214.91;;;17.03;70.30
50349;BME280;36250;48.740;22.174;2023-09-07T01:00:33;101213.25;;;16.97;70.56
50349;BME280;36250;48.740;22.174;2023-09-07T01:02:59;101220.38;;;16.93;70.78
50349;BME280;36250;48.740;22.174;2023-09-07T01:05:29;101220.38;;;16.93;70.76
50349;BME280;36250;48.740;22.174;2023-09-07T01:07:57;101214.31;;;16.91;70.78
50349;BME280;36250;48.740;22.174;2023-09-07T01:10:24;101215.16;;;16.91;70.33
50349;BME280;36250;48.740;22.174;2023-09-07T01:12:49;101214.00;;;16.87;70.76
50349;BME280;36250;48.740;22.174;2023-09-07T01:15:14;101209.34;;;16.88;70.64
50349;BME280;36250;48.740;22.174;2023-09-07T01:17:39;101204.94;;;16.87;70.54
50349;BME280;36250;48.740;22.174;2023-09-07T01:20:06;101215.38;;;16.85;71.07
50349;BME280;36250;48.740;22.174;2023-09-07T01:22:32;101213.75;;;16.89;70.58
50349;BME280;36250;48.740;22.174;2023-09-07T01:24:58;101213.75;;;16.89;71.07
50349;BME280;36250;48.740;22.174;2023-09-07T01:27:23;101212.09;;;16.88;71.02
50349;BME280;36250;48.740;22.174;2023-09-07T01:29:49;101214.00;;;16.87;70.80
50349;BME280;36250;48.740;22.174;2023-09-07T01:32:15;101209.84;;;16.75;71.11
50349;BME280;36250;48.740;22.174;2023-09-07T01:34:41;101207.31;;;16.68;71.11
50349;BME280;36250;48.740;22.174;2023-09-07T01:37:06;101213.03;;;16.62;71.61
50349;BME280;36250;48.740;22.174;2023-09-07T01:39:31;101212.75;;;16.58;71.74
50349;BME280;36250;48.740;22.174;2023-09-07T01:41:56;101213.56;;;16.59;71.70
50349;BME280;36250;48.740;22.174;2023-09-07T01:44:21;101214.09;;;16.56;72.36
50349;BME280;36250;48.740;22.174;2023-09-07T01:46:47;101223.47;;;16.60;71.90
50349;BME280;36250;48.740;22.174;2023-09-07T01:49:12;101205.34;;;16.64;71.64
50349;BME280;36250;48.740;22.174;2023-09-07T01:51:37;101208.09;;;16.64;71.84
50349;BME280;36250;48.740;22.174;2023-09-07T01:54:02;101215.03;;;16.71;71.20
50349;BME280;36250;48.740;22.174;2023-09-07T01:56:28;101213.34;;;16.70;71.03
50349;BME280;36250;48.740;22.174;2023-09-07T01:58:53;101213.03;;;16.62;71.09
50349;BME280;36250;48.740;22.174;2023-09-07T02:01:25;101216.06;;;16.60;71.16
50349;BME280;36250;48.740;22.174;2023-09-07T02:03:51;101214.72;;;16.63;70.83
50349;BME280;36250;48.740;22.174;2023-09-07T02:06:16;101210.59;;;16.70;70.59
50349;BME280;36250;48.740;22.174;2023-09-07T02:08:42;101220.25;;;16.73;70.30
50349;BME280;36250;48.740;22.174;2023-09-07T02:11:07;101221.06;;;16.68;70.05
50349;BME280;36250;48.740;22.174;2023-09-07T02:13:32;101220.97;;;16.58;70.43
50349;BME280;36250;48.740;22.174;2023-09-07T02:15:57;101219.03;;;16.54;70.45
50349;BME280;36250;48.740;22.174;2023-09-07T02:18:23;101215.38;;;16.48;69.97
50349;BME280;36250;48.740;22.174;2023-09-07T02:20:48;101213.72;;;16.42;70.41
50349;BME280;36250;48.740;22.174;2023-09-07T02:23:13;101220.56;;;16.39;70.40
50349;BME280;36250;48.740;22.174;2023-09-07T02:25:40;101219.47;;;16.40;70.13
50349;BME280;36250;48.740;22.174;2023-09-07T02:28:05;101210.69;;;16.43;69.89
50349;BME280;36250;48.740;22.174;2023-09-07T02:30:31;101215.13;;;16.50;69.62
50349;BME280;36250;48.740;22.174;2023-09-07T02:32:56;101216.78;;;16.51;70.00
50349;BME280;36250;48.740;22.174;2023-09-07T02:35:22;101219.72;;;16.39;70.14
50349;BME280;36250;48.740;22.174;2023-09-07T02:37:47;101219.44;;;16.35;70.30
50349;BME280;36250;48.740;22.174;2023-09-07T02:40:12;101222.94;;;16.26;70.74
50349;BME280;36250;48.740;22.174;2023-09-07T02:42:38;101230.53;;;16.19;71.10
50349;BME280;36250;48.740;22.174;2023-09-07T02:45:03;101232.44;;;16.13;71.31
50349;BME280;36250;48.740;22.174;2023-09-07T02:47:29;101227.97;;;16.07;72.04
50349;BME280;36250;48.740;22.174;2023-09-07T02:49:54;101232.88;;;16.00;71.94
50349;BME280;36250;48.740;22.174;2023-09-07T02:52:19;101235.28;;;15.92;72.51
50349;BME280;36250;48.740;22.174;2023-09-07T02:54:44;101240.94;;;15.85;73.10
50349;BME280;36250;48.740;22.174;2023-09-07T02:57:10;101241.47;;;15.82;72.99
50349;BME280;36250;48.740;22.174;2023-09-07T02:59:35;101237.69;;;15.88;72.63
50349;BME280;36250;48.740;22.174;2023-09-07T03:02:00;101242.13;;;15.89;72.43
50349;BME280;36250;48.740;22.174;2023-09-07T03:04:26;101240.44;;;15.88;72.53
50349;BME280;36250;48.740;22.174;2023-09-07T03:06:51;101242.91;;;15.90;72.43
50349;BME280;36250;48.740;22.174;2023-09-07T03:09:16;101239.94;;;15.91;72.25
50349;BME280;36250;48.740;22.174;2023-09-07T03:11:41;101241.91;;;15.96;72.10
50349;BME280;36250;48.740;22.174;2023-09-07T03:14:06;101245.09;;;15.88;72.27
50349;BME280;36250;48.740;22.174;2023-09-07T03:16:32;101245.94;;;15.88;72.19
50349;BME280;36250;48.740;22.174;2023-09-07T03:18:57;101240.44;;;15.88;71.88
50349;BME280;36250;48.740;22.174;2023-09-07T03:21:22;101247.28;;;15.86;72.28
50349;BME280;36250;48.740;22.174;2023-09-07T03:23:54;101243.75;;;15.90;72.19
50349;BME280;36250;48.740;22.174;2023-09-07T03:26:19;101241.06;;;15.95;71.85
50349;BME280;36250;48.740;22.174;2023-09-07T03:28:44;101254.53;;;15.97;71.79
50349;BME280;36250;48.740;22.174;2023-09-07T03:31:09;101250.41;;;15.99;71.40
50349;BME280;36250;48.740;22.174;2023-09-07T03:33:35;101255.91;;;15.99;71.44
50349;BME280;36250;48.740;22.174;2023-09-07T03:36:00;101249.84;;;15.97;71.47
50349;BME280;36250;48.740;22.174;2023-09-07T03:38:25;101255.34;;;15.97;71.46
50349;BME280;36250;48.740;22.174;2023-09-07T03:40:50;101250.13;;;15.96;71.49
50349;BME280;36250;48.740;22.174;2023-09-07T03:43:16;101250.69;;;15.98;71.31
50349;BME280;36250;48.740;22.174;2023-09-07T03:45:41;101244.38;;;15.97;71.30
50349;BME280;36250;48.740;22.174;2023-09-07T03:48:06;101253.72;;;15.96;70.92
50349;BME280;36250;48.740;22.174;2023-09-07T03:50:31;101251.53;;;15.98;70.87
50349;BME280;36250;48.740;22.174;2023-09-07T03:52:56;101255.34;;;15.97;70.91
50349;BME280;36250;48.740;22.174;2023-09-07T03:55:22;101254.50;;;15.92;71.25
50349;BME280;36250;48.740;22.174;2023-09-07T03:57:47;101262.91;;;15.85;71.36
50349;BME280;36250;48.740;22.174;2023-09-07T04:00:13;101269.75;;;15.83;71.27
50349;BME280;36250;48.740;22.174;2023-09-07T04:02:39;101271.66;;;15.77;71.69
50349;BME280;36250;48.740;22.174;2023-09-07T04:05:04;101272.44;;;15.77;71.60
50349;BME280;36250;48.740;22.174;2023-09-07T04:07:30;101278.81;;;15.83;71.71
50349;BME280;36250;48.740;22.174;2023-09-07T04:09:56;101274.22;;;15.89;71.54
50349;BME280;36250;48.740;22.174;2023-09-07T04:12:21;101278.63;;;15.90;71.33
50349;BME280;36250;48.740;22.174;2023-09-07T04:14:46;101280.63;;;15.94;71.35
50349;BME280;36250;48.740;22.174;2023-09-07T04:17:11;101285.00;;;15.95;71.19
50349;BME280;36250;48.740;22.174;2023-09-07T04:19:37;101287.22;;;15.98;71.04
50349;BME280;36250;48.740;22.174;2023-09-07T04:22:02;101280.06;;;15.97;71.28
50349;BME280;36250;48.740;22.174;2023-09-07T04:24:27;101287.84;;;16.05;71.07
50349;BME280;36250;48.740;22.174;2023-09-07T04:26:52;101286.28;;;16.14;71.13
50349;BME280;36250;48.740;22.174;2023-09-07T04:29:18;101285.25;;;16.20;70.46
50349;BME280;36250;48.740;22.174;2023-09-07T04:31:43;101291.53;;;16.16;70.57
50349;BME280;36250;48.740;22.174;2023-09-07T04:34:08;101291.81;;;16.19;69.95
50349;BME280;36250;48.740;22.174;2023-09-07T04:36:33;101285.81;;;16.22;70.20
50349;BME280;36250;48.740;22.174;2023-09-07T04:38:59;101286.13;;;16.26;69.52
50349;BME280;36250;48.740;22.174;2023-09-07T04:41:24;101293.53;;;16.25;69.73
50349;BME280;36250;48.740;22.174;2023-09-07T04:43:49;101292.09;;;16.18;69.94
50349;BME280;36250;48.740;22.174;2023-09-07T04:46:14;101295.69;;;16.18;69.82
50349;BME280;36250;48.740;22.174;2023-09-07T04:48:40;101300.72;;;16.31;69.24
50349;BME280;36250;48.740;22.174;2023-09-07T04:51:06;101302.53;;;16.48;69.48
50349;BME280;36250;48.740;22.174;2023-09-07T04:53:32;101300.47;;;16.60;68.96
50349;BME280;36250;48.740;22.174;2023-09-07T04:55:58;101292.81;;;16.67;68.72
50349;BME280;36250;48.740;22.174;2023-09-07T04:58:23;101293.47;;;16.84;68.64
50349;BME280;36250;48.740;22.174;2023-09-07T05:00:49;101296.34;;;16.99;68.60
50349;BME280;36250;48.740;22.174;2023-09-07T05:03:14;101294.47;;;17.15;68.47
50349;BME280;36250;48.740;22.174;2023-09-07T05:05:40;101294.28;;;17.31;68.83
50349;BME280;36250;48.740;22.174;2023-09-07T05:08:06;101292.97;;;17.44;68.90
50349;BME280;36250;48.740;22.174;2023-09-07T05:10:34;101301.25;;;17.49;68.89
50349;BME280;36250;48.740;22.174;2023-09-07T05:13:00;101311.44;;;17.48;68.35
50349;BME280;36250;48.740;22.174;2023-09-07T05:15:25;101302.91;;;17.50;68.77
50349;BME280;36250;48.740;22.174;2023-09-07T05:17:51;101303.22;;;17.53;68.35
50349;BME280;36250;48.740;22.174;2023-09-07T05:20:16;101298.94;;;17.78;68.11
50349;BME280;36250;48.740;22.174;2023-09-07T05:22:42;101300.03;;;17.82;68.34
50349;BME280;36250;48.740;22.174;2023-09-07T05:25:07;101306.09;;;17.89;68.52
50349;BME280;36250;48.740;22.174;2023-09-07T05:27:36;101309.44;;;17.96;68.27
50349;BME280;36250;48.740;22.174;2023-09-07T05:30:01;101312.75;;;18.08;67.86
50349;BME280;36250;48.740;22.174;2023-09-07T05:32:27;101301.47;;;18.19;67.85
50349;BME280;36250;48.740;22.174;2023-09-07T05:34:52;101302.84;;;18.27;66.77
50349;BME280;36250;48.740;22.174;2023-09-07T05:37:17;101308.94;;;18.29;66.69
50349;BME280;36250;48.740;22.174;2023-09-07T05:39:42;101307.84;;;18.40;67.31
50349;BME280;36250;48.740;22.174;2023-09-07T05:42:09;101318.88;;;18.40;68.30
50349;BME280;36250;48.740;22.174;2023-09-07T05:44:35;101308.13;;;18.44;68.80
50349;BME280;36250;48.740;22.174;2023-09-07T05:47:00;101311.47;;;18.56;68.38
50349;BME280;36250;48.740;22.174;2023-09-07T05:49:27;101314.50;;;18.64;68.10
50349;BME280;36250;48.740;22.174;2023-09-07T05:51:52;101319.47;;;18.77;67.95
50349;BME280;36250;48.740;22.174;2023-09-07T05:54:18;101318.88;;;18.85;67.91
50349;BME280;36250;48.740;22.174;2023-09-07T05:56:43;101315.00;;;18.96;67.77
50349;BME280;36250;48.740;22.174;2023-09-07T05:59:08;101326.88;;;18.97;67.89
50349;BME280;36250;48.740;22.174;2023-09-07T06:01:33;101328.25;;;19.10;67.70
50349;BME280;36250;48.740;22.174;2023-09-07T06:03:59;101330.44;;;19.08;67.70
50349;BME280;36250;48.740;22.174;2023-09-07T06:06:24;101325.75;;;19.08;67.53
50349;BME280;36250;48.740;22.174;2023-09-07T06:08:49;101330.16;;;19.09;67.98
50349;BME280;36250;48.740;22.174;2023-09-07T06:11:15;101334.31;;;19.12;68.46
50349;BME280;36250;48.740;22.174;2023-09-07T06:13:40;101341.97;;;19.25;68.07
50349;BME280;36250;48.740;22.174;2023-09-07T06:16:06;101337.00;;;19.32;67.84
50349;BME280;36250;48.740;22.174;2023-09-07T06:18:31;101338.09;;;19.36;67.50
50349;BME280;36250;48.740;22.174;2023-09-07T06:20:57;101335.34;;;19.51;66.98
50349;BME280;36250;48.740;22.174;2023-09-07T06:23:22;101344.72;;;19.50;66.60
50349;BME280;36250;48.740;22.174;2023-09-07T06:25:47;101342.75;;;19.60;66.69
50349;BME280;36250;48.740;22.174;2023-09-07T06:28:12;101341.63;;;19.61;66.73
50349;BME280;36250;48.740;22.174;2023-09-07T06:30:38;101343.81;;;19.70;66.62
50349;BME280;36250;48.740;22.174;2023-09-07T06:33:03;101342.94;;;19.74;66.26
50349;BME280;36250;48.740;22.174;2023-09-07T06:35:28;101345.66;;;19.84;66.36
50349;BME280;36250;48.740;22.174;2023-09-07T06:37:54;101344.00;;;19.83;66.25
50349;BME280;36250;48.740;22.174;2023-09-07T06:40:19;101343.75;;;19.80;66.45
50349;BME280;36250;48.740;22.174;2023-09-07T06:42:44;101347.97;;;19.62;66.71
50349;BME280;36250;48.740;22.174;2023-09-07T06:45:09;101345.75;;;19.64;67.50
50349;BME280;36250;48.740;22.174;2023-09-07T06:47:35;101353.78;;;19.65;66.94
50349;BME280;36250;48.740;22.174;2023-09-07T06:50:01;101351.53;;;19.73;66.87
50349;BME280;36250;48.740;22.174;2023-09-07T06:52:26;101351.53;;;19.78;67.08
50349;BME280;36250;48.740;22.174;2023-09-07T06:54:52;101358.13;;;19.82;66.38
50349;BME280;36250;48.740;22.174;2023-09-07T06:57:18;101352.72;;;20.05;66.05
50349;BME280;36250;48.740;22.174;2023-09-07T06:59:43;101354.06;;;20.23;64.80
50349;BME280;36250;48.740;22.174;2023-09-07T07:02:08;101359.84;;;20.21;64.59
50349;BME280;36250;48.740;22.174;2023-09-07T07:04:34;101371.47;;;20.18;64.42
50349;BME280;36250;48.740;22.174;2023-09-07T07:07:00;101370.28;;;20.35;64.90
50349;BME280;36250;48.740;22.174;2023-09-07T07:09:26;101373.75;;;20.55;64.93
50349;BME280;36250;48.740;22.174;2023-09-07T07:11:52;101370.38;;;20.63;64.13
50349;BME280;36250;48.740;22.174;2023-09-07T07:14:18;101366.06;;;20.81;64.60
50349;BME280;36250;48.740;22.174;2023-09-07T07:16:43;101365.03;;;21.01;63.67
50349;BME280;36250;48.740;22.174;2023-09-07T07:19:08;101367.72;;;21.16;62.37
50349;BME280;36250;48.740;22.174;2023-09-07T07:21:34;101369.31;;;21.22;62.03
50349;BME280;36250;48.740;22.174;2023-09-07T07:23:59;101362.78;;;21.36;61.90
50349;BME280;36250;48.740;22.174;2023-09-07T07:26:24;101364.31;;;21.47;60.85
50349;BME280;36250;48.740;22.174;2023-09-07T07:28:49;101363.94;;;21.59;60.97
50349;BME280;36250;48.740;22.174;2023-09-07T07:31:15;101367.38;;;21.70;59.52
50349;BME280;36250;48.740;22.174;2023-09-07T07:33:40;101361.50;;;21.76;59.24
50349;BME280;36250;48.740;22.174;2023-09-07T07:36:05;101368.00;;;21.90;59.55
50349;BME280;36250;48.740;22.174;2023-09-07T07:38:30;101367.81;;;22.05;59.50
50349;BME280;36250;48.740;22.174;2023-09-07T07:40:56;101362.84;;;22.21;58.89
50349;BME280;36250;48.740;22.174;2023-09-07T07:43:21;101366.44;;;22.40;59.03
50349;BME280;36250;48.740;22.174;2023-09-07T07:45:47;101370.81;;;22.46;58.20
50349;BME280;36250;48.740;22.174;2023-09-07T07:48:12;101359.53;;;22.56;58.12
50349;BME280;36250;48.740;22.174;2023-09-07T07:50:38;101365.56;;;22.63;58.44
50349;BME280;36250;48.740;22.174;2023-09-07T07:53:04;101367.75;;;22.66;57.91
50349;BME280;36250;48.740;22.174;2023-09-07T07:55:33;101362.41;;;22.70;58.09
50349;BME280;36250;48.740;22.174;2023-09-07T07:58:03;101362.75;;;22.82;57.26
50349;BME280;36250;48.740;22.174;2023-09-07T08:00:30;101361.97;;;22.95;57.38
50349;BME280;36250;48.740;22.174;2023-09-07T08:02:56;101357.50;;;23.13;56.84
50349;BME280;36250;48.740;22.174;2023-09-07T08:05:21;101360.50;;;23.30;55.80
50349;BME280;36250;48.740;22.174;2023-09-07T08:07:46;101361.25;;;23.35;56.49
50349;BME280;36250;48.740;22.174;2023-09-07T08:10:11;101362.38;;;23.48;55.94
50349;BME280;36250;48.740;22.174;2023-09-07T08:12:37;101363.13;;;23.53;55.82
50349;BME280;36250;48.740;22.174;2023-09-07T08:15:02;101364.38;;;23.61;55.12
50349;BME280;36250;48.740;22.174;2023-09-07T08:17:28;101364.16;;;23.71;55.02
50349;BME280;36250;48.740;22.174;2023-09-07T08:19:53;101369.00;;;23.79;55.15
50349;BME280;36250;48.740;22.174;2023-09-07T08:22:21;101362.91;;;23.91;56.03
50349;BME280;36250;48.740;22.174;2023-09-07T08:24:46;101364.75;;;24.09;55.21
50349;BME280;36250;48.740;22.174;2023-09-07T08:27:13;101361.75;;;24.05;55.13
50349;BME280;36250;48.740;22.174;2023-09-07T08:29:43;101358.13;;;24.18;55.93
50349;BME280;36250;48.740;22.174;2023-09-07T08:32:12;101363.31;;;24.11;55.37
50349;BME280;36250;48.740;22.174;2023-09-07T08:34:38;101358.88;;;24.10;54.52
50349;BME280;36250;48.740;22.174;2023-09-07T08:37:07;101362.78;;;24.09;54.77
50349;BME280;36250;48.740;22.174;2023-09-07T08:39:34;101362.97;;;24.27;53.85
50349;BME280;36250;48.740;22.174;2023-09-07T08:41:59;101359.72;;;24.47;54.02
50349;BME280;36250;48.740;22.174;2023-09-07T08:44:26;101360.47;;;24.61;53.08
50349;BME280;36250;48.740;22.174;2023-09-07T08:46:51;101366.78;;;24.75;52.15
50349;BME280;36250;48.740;22.174;2023-09-07T08:49:17;101364.75;;;24.80;52.01
50349;BME280;36250;48.740;22.174;2023-09-07T08:51:44;101362.16;;;24.84;50.97
50349;BME280;36250;48.740;22.174;2023-09-07T08:54:09;101365.94;;;24.88;50.67
50349;BME280;36250;48.740;22.174;2023-09-07T08:56:35;101365.50;;;24.95;51.45
50349;BME280;36250;48.740;22.174;2023-09-07T08:59:00;101361.38;;;24.92;51.07
50349;BME280;36250;48.740;22.174;2023-09-07T09:01:25;101353.16;;;24.87;51.49
50349;BME280;36250;48.740;22.174;2023-09-07T09:03:51;101360.84;;;25.12;51.53
50349;BME280;36250;48.740;22.174;2023-09-07T09:06:17;101356.09;;;25.13;47.41
50349;BME280;36250;48.740;22.174;2023-09-07T09:08:46;101366.75;;;25.11;48.39
50349;BME280;36250;48.740;22.174;2023-09-07T09:11:15;101356.69;;;25.32;46.97
50349;BME280;36250;48.740;22.174;2023-09-07T09:13:40;101355.09;;;25.39;46.87
50349;BME280;36250;48.740;22.174;2023-09-07T09:16:06;101359.66;;;25.35;46.89
50349;BME280;36250;48.740;22.174;2023-09-07T09:18:31;101360.28;;;25.55;46.56
50349;BME280;36250;48.740;22.174;2023-09-07T09:20:57;101356.84;;;25.58;45.63
50349;BME280;36250;48.740;22.174;2023-09-07T09:23:35;101351.69;;;25.82;46.79
50349;BME280;36250;48.740;22.174;2023-09-07T09:26:00;101344.81;;;25.96;45.86
50349;BME280;36250;48.740;22.174;2023-09-07T09:28:26;101339.88;;;26.02;45.55
50349;BME280;36250;48.740;22.174;2023-09-07T09:30:52;101348.28;;;26.10;45.82
50349;BME280;36250;48.740;22.174;2023-09-07T09:33:19;101343.03;;;26.09;45.53
50349;BME280;36250;48.740;22.174;2023-09-07T09:35:44;101342.50;;;26.07;45.07
50349;BME280;36250;48.740;22.174;2023-09-07T09:38:09;101346.34;;;26.11;43.71
50349;BME280;36250;48.740;22.174;2023-09-07T09:40:35;101357.59;;;25.89;44.11
50349;BME280;36250;48.740;22.174;2023-09-07T09:43:01;101343.66;;;25.97;45.43
50349;BME280;36250;48.740;22.174;2023-09-07T09:45:26;101337.66;;;26.21;43.91
50349;BME280;36250;48.740;22.174;2023-09-07T09:47:53;101339.28;;;26.39;43.92
50349;BME280;36250;48.740;22.174;2023-09-07T09:50:20;101341.09;;;26.52;43.18
50349;BME280;36250;48.740;22.174;2023-09-07T09:52:47;101336.66;;;26.51;42.66
50349;BME280;36250;48.740;22.174;2023-09-07T09:55:12;101335.34;;;26.49;42.38
50349;BME280;36250;48.740;22.174;2023-09-07T09:57:38;101337.81;;;26.59;43.67
50349;BME280;36250;48.740;22.174;2023-09-07T10:00:04;101327.63;;;26.54;41.62
50349;BME280;36250;48.740;22.174;2023-09-07T10:03:00;101329.09;;;26.69;42.95
50349;BME280;36250;48.740;22.174;2023-09-07T10:05:26;101329.56;;;26.97;43.13
50349;BME280;36250;48.740;22.174;2023-09-07T10:07:52;101333.75;;;27.20;41.84
50349;BME280;36250;48.740;22.174;2023-09-07T10:10:18;101335.41;;;27.21;40.48
50349;BME280;36250;48.740;22.174;2023-09-07T10:12:44;101320.84;;;27.07;40.69
50349;BME280;36250;48.740;22.174;2023-09-07T10:17:47;101326.09;;;27.00;41.46
50349;BME280;36250;48.740;22.174;2023-09-07T10:20:15;101328.41;;;26.98;41.20
50349;BME280;36250;48.740;22.174;2023-09-07T10:22:40;101321.00;;;27.02;41.49
50349;BME280;36250;48.740;22.174;2023-09-07T10:25:05;101319.66;;;27.16;41.34
50349;BME280;36250;48.740;22.174;2023-09-07T10:27:37;101320.72;;;27.32;41.11
50349;BME280;36250;48.740;22.174;2023-09-07T10:30:02;101316.91;;;27.37;40.83
50349;BME280;36250;48.740;22.174;2023-09-07T10:32:37;101314.78;;;27.34;39.76
50349;BME280;36250;48.740;22.174;2023-09-07T10:35:11;101323.19;;;27.43;41.52
50349;BME280;36250;48.740;22.174;2023-09-07T10:37:36;101311.31;;;27.37;39.72
50349;BME280;36250;48.740;22.174;2023-09-07T10:40:02;101309.59;;;27.24;40.55
50349;BME280;36250;48.740;22.174;2023-09-07T10:42:29;101317.16;;;27.15;40.45
50349;BME280;36250;48.740;22.174;2023-09-07T10:44:55;101305.91;;;27.32;40.86
50349;BME280;36250;48.740;22.174;2023-09-07T10:47:20;101305.66;;;27.54;40.56
50349;BME280;36250;48.740;22.174;2023-09-07T10:49:45;101304.94;;;27.66;39.01
50349;BME280;36250;48.740;22.174;2023-09-07T10:52:11;101303.41;;;27.77;40.35
50349;BME280;36250;48.740;22.174;2023-09-07T10:54:36;101295.91;;;27.89;38.89
50349;BME280;36250;48.740;22.174;2023-09-07T10:57:11;101299.78;;;27.76;39.13
50349;BME280;36250;48.740;22.174;2023-09-07T10:59:46;101287.25;;;27.82;39.40
50349;BME280;36250;48.740;22.174;2023-09-07T11:02:11;101292.34;;;27.80;38.76
50349;BME280;36250;48.740;22.174;2023-09-07T11:04:36;101287.44;;;27.77;38.91
50349;BME280;36250;48.740;22.174;2023-09-07T11:07:02;101300.72;;;27.60;38.69
50349;BME280;36250;48.740;22.174;2023-09-07T11:09:29;101287.19;;;27.62;38.86
50349;BME280;36250;48.740;22.174;2023-09-07T11:11:54;101285.78;;;27.76;39.67
50349;BME280;36250;48.740;22.174;2023-09-07T11:14:21;101285.19;;;27.91;38.41
50349;BME280;36250;48.740;22.174;2023-09-07T11:16:46;101283.19;;;28.00;39.07
50349;BME280;36250;48.740;22.174;2023-09-07T11:19:11;101286.31;;;28.20;38.00
50349;BME280;36250;48.740;22.174;2023-09-07T11:21:38;101278.69;;;28.29;38.41
50349;BME280;36250;48.740;22.174;2023-09-07T11:24:04;101274.50;;;28.35;38.68
50349;BME280;36250;48.740;22.174;2023-09-07T11:26:40;101274.41;;;28.43;38.31
50349;BME280;36250;48.740;22.174;2023-09-07T11:29:05;101266.19;;;28.59;37.97
50349;BME280;36250;48.740;22.174;2023-09-07T11:31:30;101268.06;;;28.88;38.86
50349;BME280;36250;48.740;22.174;2023-09-07T11:33:55;101269.56;;;28.85;37.44
50349;BME280;36250;48.740;22.174;2023-09-07T11:36:21;101262.44;;;28.88;37.17
50349;BME280;36250;48.740;22.174;2023-09-07T11:38:49;101264.44;;;28.99;37.55
50349;BME280;36250;48.740;22.174;2023-09-07T11:41:14;101268.31;;;28.95;37.33
50349;BME280;36250;48.740;22.174;2023-09-07T11:43:40;101264.91;;;29.01;36.72
50349;BME280;36250;48.740;22.174;2023-09-07T11:46:06;101266.13;;;29.12;37.58
50349;BME280;36250;48.740;22.174;2023-09-07T11:48:32;101261.66;;;29.11;37.32
50349;BME280;36250;48.740;22.174;2023-09-07T11:50:58;101258.75;;;29.20;36.13
50349;BME280;36250;48.740;22.174;2023-09-07T11:53:24;101261.56;;;29.20;36.29
50349;BME280;36250;48.740;22.174;2023-09-07T11:55:49;101253.47;;;29.18;37.19
50349;BME280;36250;48.740;22.174;2023-09-07T11:58:14;101253.28;;;29.23;36.62
50349;BME280;36250;48.740;22.174;2023-09-07T12:00:39;101258.44;;;29.34;35.34
50349;BME280;36250;48.740;22.174;2023-09-07T12:03:06;101251.38;;;29.64;35.79
50349;BME280;36250;48.740;22.174;2023-09-07T12:05:32;101253.03;;;29.65;35.04
50349;BME280;36250;48.740;22.174;2023-09-07T12:07:57;101249.38;;;29.64;35.36
50349;BME280;36250;48.740;22.174;2023-09-07T12:10:22;101251.38;;;29.64;35.15
50349;BME280;36250;48.740;22.174;2023-09-07T12:12:47;101247.88;;;29.55;35.33
50349;BME280;36250;48.740;22.174;2023-09-07T12:15:13;101235.69;;;29.87;36.21
50349;BME280;36250;48.740;22.174;2023-09-07T12:17:38;101240.38;;;29.95;34.79
50349;BME280;36250;48.740;22.174;2023-09-07T12:20:03;101239.81;;;30.17;34.97
50349;BME280;36250;48.740;22.174;2023-09-07T12:22:30;101239.34;;;30.15;35.07
50349;BME280;36250;48.740;22.174;2023-09-07T12:24:57;101231.78;;;30.04;35.87
50349;BME280;36250;48.740;22.174;2023-09-07T12:27:22;101235.88;;;30.06;35.23
50349;BME280;36250;48.740;22.174;2023-09-07T12:29:47;101239.25;;;30.12;35.12
50349;BME280;36250;48.740;22.174;2023-09-07T12:32:13;101218.34;;;29.97;34.58
50349;BME280;36250;48.740;22.174;2023-09-07T12:34:39;101227.00;;;30.04;34.38
50349;BME280;36250;48.740;22.174;2023-09-07T12:37:04;101228.09;;;30.15;35.01